createdAt,value
2022-11-07T00:01:56.833Z,13.90
2022-11-07T00:04:25.756Z,9.10
2022-11-07T00:06:54.493Z,13.50
2022-11-07T00:09:23.259Z,8.00
2022-11-07T00:11:53.077Z,10.20
2022-11-07T00:16:50.264Z,10.30
2022-11-07T00:19:20.641Z,9.30
2022-11-07T00:24:19.000Z,10.40
2022-11-07T00:26:48.104Z,10.40
2022-11-07T00:29:19.906Z,13.20
2022-11-07T00:31:49.004Z,10.50
2022-11-07T00:34:17.236Z,10.00
2022-11-07T00:46:39.993Z,8.40
2022-11-07T01:01:33.133Z,7.80
2022-11-07T01:04:20.416Z,8.10
2022-11-07T01:09:18.968Z,10.60
2022-11-07T01:11:47.975Z,8.30
2022-11-07T01:14:17.863Z,9.60
2022-11-07T01:16:47.528Z,9.90
2022-11-07T01:19:17.298Z,10.60
2022-11-07T01:21:45.461Z,14.20
2022-11-07T01:24:14.605Z,10.60
2022-11-07T01:26:44.634Z,9.50
2022-11-07T01:31:41.450Z,11.80
2022-11-07T01:34:09.710Z,12.90
2022-11-07T01:36:39.561Z,9.40
2022-11-07T01:39:07.568Z,9.40
2022-11-07T01:41:37.933Z,14.70
2022-11-07T01:44:44.501Z,14.70
2022-11-07T01:47:13.154Z,10.80
2022-11-07T01:49:43.810Z,10.60
2022-11-07T01:52:18.731Z,8.10
2022-11-07T01:54:50.142Z,13.30
2022-11-07T01:57:23.368Z,9.30
2022-11-07T01:59:55.363Z,9.70
2022-11-07T02:02:26.111Z,10.60
2022-11-07T02:04:55.049Z,8.30
2022-11-07T02:07:25.131Z,10.60
2022-11-07T02:09:54.651Z,10.60
2022-11-07T02:12:26.361Z,10.60
2022-11-07T02:14:55.139Z,8.40
2022-11-07T02:19:54.052Z,11.60
2022-11-07T02:22:30.622Z,10.20
2022-11-07T02:25:03.180Z,13.10
2022-11-07T02:27:33.626Z,10.70
2022-11-07T02:30:05.212Z,10.70
2022-11-07T02:32:33.510Z,10.40
2022-11-07T02:35:03.517Z,10.00
2022-11-07T02:37:33.749Z,10.60
2022-11-07T02:40:06.581Z,9.40
2022-11-07T02:45:16.038Z,14.80
2022-11-07T02:50:15.664Z,12.00
2022-11-07T02:55:15.110Z,10.60
2022-11-07T02:57:43.613Z,14.10
2022-11-07T03:00:14.099Z,11.80
2022-11-07T03:05:15.691Z,8.30
2022-11-07T03:07:44.266Z,8.50
2022-11-07T03:10:14.316Z,7.70
2022-11-07T03:15:12.572Z,10.10
2022-11-07T03:17:40.755Z,10.60
2022-11-07T03:20:10.559Z,12.20
2022-11-07T03:22:38.833Z,12.70
2022-11-07T03:25:07.807Z,9.90
2022-11-07T03:27:37.175Z,10.60
2022-11-07T03:30:05.754Z,9.40
2022-11-07T03:35:02.901Z,10.00
2022-11-07T03:39:59.264Z,14.10
2022-11-07T03:42:27.340Z,9.20
2022-11-07T03:44:56.706Z,13.40
2022-11-07T03:47:24.699Z,9.40
2022-11-07T03:49:52.696Z,9.60
2022-11-07T03:52:20.750Z,7.80
2022-11-07T03:54:50.678Z,8.20
2022-11-07T03:57:18.728Z,10.00
2022-11-07T03:59:46.877Z,14.60
2022-11-07T04:02:16.496Z,10.60
2022-11-07T04:07:13.106Z,14.70
2022-11-07T04:12:28.037Z,10.60
2022-11-07T04:17:43.449Z,9.20
2022-11-07T04:20:11.910Z,11.40
2022-11-07T04:22:40.004Z,8.50
2022-11-07T04:25:09.098Z,12.40
2022-11-07T04:27:46.777Z,13.50
2022-11-07T04:30:28.051Z,8.90
2022-11-07T04:32:59.283Z,10.50
2022-11-07T04:35:30.445Z,10.50
2022-11-07T04:37:58.765Z,9.20
2022-11-07T04:50:22.148Z,10.40
2022-11-07T04:55:21.764Z,13.70
2022-11-07T04:57:50.091Z,14.10
2022-11-07T05:00:19.796Z,8.90
2022-11-07T05:02:48.743Z,12.10
2022-11-07T05:05:17.659Z,10.40
2022-11-07T05:07:47.365Z,9.40
2022-11-07T05:10:20.074Z,10.30
2022-11-07T05:17:45.795Z,7.90
2022-11-07T05:20:27.425Z,8.10
2022-11-07T05:23:17.735Z,13.90
2022-11-07T05:25:48.891Z,10.30
2022-11-07T05:28:25.673Z,8.40
2022-11-07T05:31:00.129Z,10.30
2022-11-07T05:38:26.981Z,10.10
2022-11-07T05:40:55.118Z,10.70
2022-11-07T05:43:23.243Z,8.90
2022-11-07T05:50:48.975Z,9.50
2022-11-07T05:55:48.155Z,10.00
2022-11-07T06:03:17.418Z,8.20
2022-11-07T06:05:45.944Z,8.50
2022-11-07T06:08:15.095Z,10.00
2022-11-07T06:10:46.394Z,10.00
2022-11-07T06:13:17.765Z,10.00
2022-11-07T06:15:46.560Z,14.00
2022-11-07T06:18:17.294Z,8.20
2022-11-07T06:25:43.018Z,8.40
2022-11-07T06:28:13.155Z,8.30
2022-11-07T06:30:42.837Z,9.90
2022-11-07T06:33:14.021Z,9.90
2022-11-07T06:35:42.546Z,7.60
2022-11-07T06:38:14.525Z,12.50
2022-11-07T06:40:42.990Z,9.00
2022-11-07T06:43:14.128Z,9.80
2022-11-07T06:45:44.910Z,9.80
2022-11-07T06:48:13.653Z,9.70
2022-11-07T06:53:12.879Z,7.60
2022-11-07T06:58:10.370Z,7.50
2022-11-07T07:03:08.512Z,9.70
2022-11-07T07:08:07.482Z,8.20
2022-11-07T07:10:39.239Z,9.50
2022-11-07T07:13:07.690Z,7.30
2022-11-07T07:18:21.267Z,13.80
2022-11-07T07:20:50.254Z,8.90
2022-11-07T07:28:17.062Z,9.90
2022-11-07T07:33:21.485Z,8.40
2022-11-07T07:40:46.893Z,8.10
2022-11-07T07:45:44.094Z,13.50
2022-11-07T07:50:41.967Z,7.80
2022-11-07T07:53:10.807Z,9.20
2022-11-07T08:00:38.189Z,9.70
2022-11-07T08:03:09.354Z,10.30
2022-11-07T08:08:10.047Z,10.50
2022-11-07T08:10:42.759Z,9.00
2022-11-07T08:18:08.578Z,10.20
2022-11-07T08:23:09.864Z,10.60
2022-11-07T08:25:44.563Z,10.60
2022-11-07T08:30:41.018Z,8.50
2022-11-07T08:33:09.320Z,10.50
2022-11-07T08:35:42.194Z,12.00
2022-11-07T08:40:39.319Z,8.90
2022-11-07T08:43:08.746Z,9.20
2022-11-07T08:45:36.739Z,15.10
2022-11-07T08:48:05.171Z,9.60
2022-11-07T08:58:09.024Z,11.80
2022-11-07T09:00:37.508Z,15.30
2022-11-07T09:05:58.551Z,14.80
2022-11-07T09:11:04.763Z,12.90
2022-11-07T09:13:35.830Z,13.20
2022-11-07T09:16:25.315Z,11.90
2022-11-07T09:28:53.947Z,14.60
2022-11-07T09:31:24.518Z,14.60
2022-11-07T09:41:32.525Z,12.60
2022-11-07T09:44:29.470Z,14.30
2022-11-07T09:47:06.754Z,19.20
2022-11-07T09:49:38.973Z,14.90
2022-11-07T09:52:17.137Z,14.90
2022-11-07T09:54:50.759Z,14.40
2022-11-07T09:57:20.878Z,14.90
2022-11-07T09:59:55.937Z,14.00
2022-11-07T10:02:27.905Z,13.90
2022-11-07T10:04:58.611Z,14.70
2022-11-07T10:07:37.640Z,19.10
2022-11-07T10:10:14.768Z,14.30
2022-11-07T10:13:00.158Z,15.50
2022-11-07T10:15:33.809Z,14.10
2022-11-07T10:18:14.211Z,14.10
2022-11-07T10:21:10.249Z,15.80
2022-11-07T10:23:56.666Z,15.60
2022-11-07T10:26:30.299Z,15.70
2022-11-07T10:29:05.671Z,13.90
2022-11-07T10:31:40.894Z,15.90
2022-11-07T10:34:14.583Z,16.10
2022-11-07T10:39:19.120Z,16.20
2022-11-07T10:41:56.413Z,16.20
2022-11-07T10:44:28.202Z,16.40
2022-11-07T10:46:59.519Z,16.40
2022-11-07T10:49:39.381Z,16.40
2022-11-07T10:52:09.291Z,16.30
2022-11-07T10:54:44.864Z,16.20
2022-11-07T10:57:30.530Z,16.20
2022-11-07T11:00:00.138Z,15.30
2022-11-07T11:02:46.656Z,16.30
2022-11-07T11:05:26.110Z,15.10
2022-11-07T11:07:57.129Z,20.40
2022-11-07T11:10:31.084Z,16.70
2022-11-07T11:18:27.123Z,16.50
2022-11-07T11:21:03.702Z,16.50
2022-11-07T11:23:36.426Z,16.40
2022-11-07T11:26:17.003Z,16.50
2022-11-07T11:28:51.135Z,16.50
2022-11-07T11:31:29.428Z,16.40
2022-11-07T11:34:18.656Z,16.40
2022-11-07T11:36:57.770Z,16.40
2022-11-07T11:39:32.747Z,16.50
2022-11-07T11:42:01.437Z,16.00
2022-11-07T11:44:38.315Z,16.90
2022-11-07T11:47:15.240Z,17.10
2022-11-07T11:49:48.829Z,15.30
2022-11-07T11:52:18.924Z,16.90
2022-11-07T11:54:48.356Z,17.00
2022-11-07T11:57:19.971Z,17.00
2022-11-07T12:00:07.855Z,15.00
2022-11-07T12:03:11.839Z,17.20
2022-11-07T12:06:00.086Z,16.40
2022-11-07T12:08:45.293Z,17.20
2022-11-07T12:11:22.462Z,17.10
2022-11-07T12:14:01.926Z,17.10
2022-11-07T12:16:41.751Z,15.00
2022-11-07T12:19:19.983Z,16.60
2022-11-07T12:22:09.112Z,16.60
2022-11-07T12:24:45.768Z,15.40
2022-11-07T12:27:26.781Z,15.60
2022-11-07T12:30:11.460Z,16.60
2022-11-07T12:32:54.572Z,16.60
2022-11-07T12:35:37.373Z,17.20
2022-11-07T12:38:27.022Z,21.10
2022-11-07T12:41:03.503Z,15.80
2022-11-07T12:43:44.035Z,16.70
2022-11-07T12:46:24.035Z,16.80
2022-11-07T12:49:13.567Z,16.30
2022-11-07T12:51:52.540Z,16.80
2022-11-07T12:54:40.979Z,16.00
2022-11-07T12:57:17.921Z,15.20
2022-11-07T12:59:52.455Z,16.60
2022-11-07T13:02:35.627Z,16.60
2022-11-07T13:05:19.788Z,16.20
2022-11-07T13:08:01.873Z,16.50
2022-11-07T13:10:53.445Z,16.50
2022-11-07T13:13:31.989Z,16.40
2022-11-07T13:16:16.243Z,16.40
2022-11-07T13:18:47.876Z,16.30
2022-11-07T13:23:48.180Z,16.20
2022-11-07T13:29:35.499Z,20.20
2022-11-07T13:32:09.733Z,16.20
2022-11-07T13:34:55.891Z,15.30
2022-11-07T13:37:27.464Z,16.10
2022-11-07T13:40:01.259Z,14.60
2022-11-07T13:42:44.254Z,16.20
2022-11-07T13:45:27.359Z,20.30
2022-11-07T13:48:15.548Z,16.10
2022-11-07T13:50:47.928Z,16.00
2022-11-07T13:53:22.135Z,16.00
2022-11-07T13:56:01.645Z,14.90
2022-11-07T13:58:34.739Z,15.90
2022-11-07T14:01:11.466Z,15.60
2022-11-07T14:03:49.028Z,15.00
2022-11-07T14:06:21.967Z,15.80
2022-11-07T14:11:24.981Z,15.80
2022-11-07T14:13:56.002Z,15.70
2022-11-07T14:16:30.714Z,15.70
2022-11-07T14:19:01.617Z,13.80
2022-11-07T14:21:31.851Z,15.60
2022-11-07T14:26:32.848Z,14.40
2022-11-07T14:29:03.716Z,15.50
2022-11-07T14:31:35.615Z,15.50
2022-11-07T14:34:07.603Z,15.50
2022-11-07T14:39:15.586Z,15.50
2022-11-07T14:41:51.053Z,14.40
2022-11-07T14:44:36.427Z,15.50
2022-11-07T14:47:27.650Z,15.40
2022-11-07T14:49:59.008Z,15.40
2022-11-07T14:52:57.301Z,14.40
2022-11-07T14:56:28.093Z,16.30
2022-11-07T14:59:02.746Z,15.40
2022-11-07T15:02:11.112Z,15.30
2022-11-07T15:09:36.026Z,15.20
2022-11-07T15:12:25.688Z,15.20
2022-11-07T15:19:05.908Z,15.10
2022-11-07T15:21:57.425Z,15.10
2022-11-07T15:24:56.504Z,15.10
2022-11-07T15:27:50.781Z,18.80
2022-11-07T15:35:17.519Z,14.90
2022-11-07T15:37:57.792Z,13.70
2022-11-07T15:40:33.795Z,14.80
2022-11-07T15:43:35.087Z,14.70
2022-11-07T15:46:20.975Z,14.70
2022-11-07T15:49:20.043Z,14.60
2022-11-07T15:58:37.007Z,14.40
2022-11-07T16:01:27.607Z,14.40
2022-11-07T16:09:41.148Z,14.20
2022-11-07T16:12:16.628Z,14.20
2022-11-07T16:15:05.775Z,14.10
2022-11-07T16:20:27.760Z,17.20
2022-11-07T16:26:09.273Z,14.00
2022-11-07T16:39:41.464Z,13.90
2022-11-07T16:48:38.808Z,13.90
2022-11-07T16:51:23.762Z,13.90
2022-11-07T16:55:01.944Z,13.90
2022-11-07T16:57:36.977Z,13.80
2022-11-07T17:00:13.900Z,13.80
2022-11-07T17:02:48.290Z,13.80
2022-11-07T17:05:37.343Z,13.80
2022-11-07T17:16:10.076Z,13.60
2022-11-07T17:21:26.283Z,13.60
2022-11-07T17:27:28.410Z,13.60
2022-11-07T17:30:05.962Z,13.50
2022-11-07T17:36:04.037Z,13.50
2022-11-07T17:38:44.774Z,13.50
2022-11-07T17:41:23.935Z,13.40
2022-11-07T17:54:39.017Z,12.10
2022-11-07T18:02:18.730Z,13.30
2022-11-07T18:09:46.363Z,13.10
2022-11-07T18:14:43.304Z,12.70
2022-11-07T18:17:11.487Z,11.70
2022-11-07T18:24:36.309Z,12.80
2022-11-07T18:27:10.296Z,12.80
2022-11-07T18:29:41.737Z,12.40
2022-11-07T18:32:09.896Z,11.90
2022-11-07T18:37:06.588Z,16.90
2022-11-07T18:39:41.556Z,12.20
2022-11-07T18:42:16.536Z,12.60
2022-11-07T18:49:44.447Z,12.60
2022-11-07T18:57:19.283Z,12.40
2022-11-07T18:59:47.699Z,10.80
2022-11-07T19:02:17.125Z,10.50
2022-11-07T19:04:50.577Z,12.40
2022-11-07T19:14:54.026Z,12.40
2022-11-07T19:24:53.709Z,11.90
2022-11-07T19:27:22.285Z,9.90
2022-11-07T19:29:52.083Z,12.30
2022-11-07T19:32:20.304Z,12.00
2022-11-07T19:42:14.092Z,12.20
2022-11-07T19:44:48.397Z,15.70
2022-11-07T19:47:20.270Z,11.90
2022-11-07T19:49:48.505Z,12.10
2022-11-07T19:57:13.788Z,15.40
2022-11-07T20:02:31.651Z,12.00
2022-11-07T20:05:02.068Z,12.00
2022-11-07T20:07:33.033Z,12.00
2022-11-07T20:10:02.992Z,10.20
2022-11-07T20:12:31.178Z,13.50
2022-11-07T20:17:32.675Z,10.60
2022-11-07T20:20:06.146Z,11.80
2022-11-07T20:30:02.754Z,14.80
2022-11-07T20:35:02.781Z,11.50
2022-11-07T20:37:31.049Z,11.00
2022-11-07T20:42:27.682Z,15.60
2022-11-07T20:52:23.655Z,11.50
2022-11-07T21:02:19.344Z,11.10
2022-11-07T21:07:38.563Z,11.40
2022-11-07T21:10:07.453Z,11.50
2022-11-07T21:25:06.023Z,9.70
2022-11-07T21:27:36.866Z,11.30
2022-11-07T21:30:08.198Z,11.20
2022-11-07T21:42:33.506Z,11.10
2022-11-07T21:47:31.638Z,11.00
2022-11-07T21:49:59.680Z,10.60
2022-11-07T21:59:59.624Z,10.50
2022-11-07T22:02:27.963Z,13.90
2022-11-07T22:07:26.642Z,10.30
2022-11-07T22:14:52.878Z,9.50
2022-11-07T22:17:26.939Z,9.10
2022-11-07T22:19:55.397Z,9.20
2022-11-07T22:22:23.745Z,9.20
2022-11-07T22:24:51.867Z,9.90
2022-11-07T22:27:19.970Z,13.40
2022-11-07T22:29:48.164Z,14.30
2022-11-07T22:34:46.053Z,10.20
2022-11-07T22:37:16.250Z,12.30
2022-11-07T22:42:12.743Z,12.40
2022-11-07T22:49:37.628Z,14.40
2022-11-07T22:52:07.273Z,10.20
2022-11-07T23:02:00.643Z,8.80
2022-11-07T23:09:31.459Z,10.10
2022-11-07T23:16:57.919Z,8.00
2022-11-07T23:19:27.817Z,10.00
2022-11-07T23:21:56.735Z,8.90
2022-11-07T23:26:54.789Z,10.00
2022-11-07T23:29:25.339Z,10.00
2022-11-07T23:31:54.146Z,9.30
2022-11-07T23:34:23.321Z,10.00
2022-11-07T23:36:52.478Z,10.00
2022-11-07T23:39:22.555Z,10.00
2022-11-07T23:44:20.664Z,10.00
2022-11-07T23:49:52.724Z,8.50
2022-11-07T23:57:56.587Z,8.00
